createdAt,value
2019-03-10T00:03:35.218Z,6.70
2019-03-10T00:21:33.391Z,6.60
2019-03-10T00:25:42.908Z,6.60
2019-03-10T00:29:52.460Z,6.50
2019-03-10T00:33:59.152Z,6.50
2019-03-10T00:38:08.934Z,6.50
2019-03-10T00:42:47.322Z,6.30
2019-03-10T00:47:26.910Z,6.40
2019-03-10T00:51:46.265Z,6.30
2019-03-10T00:55:53.087Z,6.40
2019-03-10T01:00:00.639Z,6.20
2019-03-10T01:04:29.254Z,6.10
2019-03-10T01:08:39.824Z,6.10
2019-03-10T01:12:48.128Z,6.20
2019-03-10T01:16:54.955Z,6.10
2019-03-10T01:21:06.407Z,5.70
2019-03-10T01:25:14.349Z,5.00
2019-03-10T01:29:21.660Z,4.90
2019-03-10T01:33:26.706Z,4.60
2019-03-10T01:37:35.988Z,4.60
2019-03-10T01:45:52.570Z,4.10
2019-03-10T01:50:00.444Z,4.90
2019-03-10T01:54:10.525Z,4.00
2019-03-10T01:58:16.934Z,4.10
2019-03-10T02:02:27.560Z,4.50
2019-03-10T02:06:38.216Z,4.50
2019-03-10T02:10:48.288Z,4.70
2019-03-10T02:14:54.721Z,4.70
2019-03-10T02:19:02.235Z,4.70
2019-03-10T02:23:08.635Z,4.40
2019-03-10T02:27:17.001Z,4.80
2019-03-10T02:35:36.672Z,4.80
2019-03-10T02:39:44.826Z,4.60
2019-03-10T02:43:53.506Z,5.10
2019-03-10T02:48:05.744Z,5.10
2019-03-10T02:52:15.615Z,5.10
2019-03-10T02:56:22.139Z,5.90
2019-03-10T03:00:34.875Z,4.40
2019-03-10T03:04:41.273Z,4.60
2019-03-10T03:08:50.029Z,4.50
2019-03-10T03:13:18.106Z,4.20
2019-03-10T03:17:24.897Z,4.20
2019-03-10T03:56:10.198Z,3.80
2019-03-10T04:04:25.960Z,3.80
2019-03-10T05:17:17.584Z,3.70
2019-03-10T05:21:27.600Z,3.70
2019-03-10T05:25:34.481Z,3.60
2019-03-10T05:34:46.424Z,3.80
2019-03-10T05:38:52.957Z,3.80
2019-03-10T05:43:01.866Z,4.00
2019-03-10T05:47:08.158Z,4.00
2019-03-10T05:51:16.225Z,4.20
2019-03-10T05:55:45.686Z,4.20
2019-03-10T08:50:42.503Z,7.10
2019-03-10T08:54:37.629Z,6.60
2019-03-10T08:59:00.607Z,6.40
2019-03-10T09:12:29.666Z,6.30
2019-03-10T09:21:20.553Z,6.50
2019-03-10T09:25:45.738Z,6.50
2019-03-10T09:34:40.374Z,6.90
2019-03-10T09:38:57.423Z,7.00
2019-03-10T09:43:17.369Z,7.30
2019-03-10T09:47:37.203Z,7.00
2019-03-10T09:51:57.140Z,7.30
2019-03-10T09:56:20.390Z,7.00
2019-03-10T10:00:48.019Z,6.90
2019-03-10T10:05:19.519Z,6.70
2019-03-10T11:14:22.809Z,7.80
2019-03-10T12:19:23.070Z,8.00
2019-03-10T12:23:29.814Z,7.60
2019-03-10T12:27:58.445Z,7.80
2019-03-10T12:32:12.438Z,7.90
2019-03-10T12:36:21.902Z,8.00
2019-03-10T12:57:37.787Z,8.20
2019-03-10T13:01:45.188Z,8.40
2019-03-10T13:05:52.302Z,8.30
2019-03-10T13:10:03.007Z,10.80
2019-03-10T13:14:10.551Z,8.60
2019-03-10T13:18:20.770Z,8.80
2019-03-10T13:22:27.403Z,9.00
2019-03-10T13:48:15.231Z,8.90
2019-03-10T13:52:21.617Z,9.10
2019-03-10T13:56:49.709Z,9.00
2019-03-10T15:01:35.708Z,9.50
2019-03-10T15:05:48.525Z,9.30
2019-03-10T15:09:57.589Z,9.30
2019-03-10T15:14:04.748Z,9.00
2019-03-10T15:18:12.530Z,9.10
2019-03-10T15:22:22.630Z,9.60
2019-03-10T15:26:45.204Z,9.30
2019-03-10T15:34:52.895Z,9.00
2019-03-10T15:39:02.024Z,9.00
2019-03-10T15:43:12.001Z,8.90
2019-03-10T15:47:21.133Z,8.60
2019-03-10T15:51:28.161Z,9.20
2019-03-10T15:55:43.643Z,9.20
2019-03-10T15:59:50.564Z,8.50
2019-03-10T16:26:05.933Z,8.40
2019-03-10T16:30:15.782Z,8.00
2019-03-10T16:34:23.147Z,8.30
2019-03-10T16:38:32.054Z,8.30
2019-03-10T16:42:38.568Z,7.90
2019-03-10T16:51:11.869Z,7.90
2019-03-10T16:55:18.359Z,7.90
2019-03-10T16:59:27.405Z,7.80
2019-03-10T17:03:33.817Z,7.40
2019-03-10T17:11:52.540Z,7.30
2019-03-10T17:16:09.569Z,7.20
2019-03-10T17:20:16.672Z,7.80
2019-03-10T17:24:28.756Z,7.40
2019-03-10T17:28:37.094Z,6.70
2019-03-10T17:32:50.229Z,3.50
2019-03-10T17:37:07.292Z,7.10
2019-03-10T17:41:16.401Z,7.20
2019-03-10T17:58:22.218Z,6.20
2019-03-10T18:02:37.818Z,6.70
2019-03-10T18:11:10.989Z,6.80
2019-03-10T18:15:17.807Z,6.80
2019-03-10T18:19:28.875Z,6.80
2019-03-10T18:23:35.269Z,6.50
2019-03-10T18:27:45.453Z,6.30
2019-03-10T18:31:54.755Z,5.80
2019-03-10T18:36:01.652Z,6.30
2019-03-10T18:40:12.119Z,6.30
2019-03-10T18:44:23.440Z,6.00
2019-03-10T18:48:35.654Z,6.10
2019-03-10T19:32:17.898Z,6.40
2019-03-10T19:36:28.306Z,6.10
2019-03-10T19:40:34.769Z,5.60
2019-03-10T19:44:43.751Z,6.10
2019-03-10T19:48:54.177Z,6.70
2019-03-10T19:53:02.636Z,6.30
2019-03-10T19:57:09.092Z,5.60
2019-03-10T20:01:18.248Z,5.80
2019-03-10T20:09:35.685Z,6.10
2019-03-10T20:13:59.787Z,6.10
2019-03-10T20:18:07.838Z,5.80
2019-03-10T20:22:17.933Z,5.70
2019-03-10T20:26:29.419Z,5.40
2019-03-10T20:30:48.533Z,6.00
2019-03-10T20:34:56.271Z,5.70
2019-03-10T20:39:07.701Z,5.90
2019-03-10T20:43:16.351Z,5.70
2019-03-10T20:47:27.602Z,9.70
2019-03-10T20:51:34.090Z,5.80
2019-03-10T20:55:40.608Z,5.90
2019-03-10T21:00:00.246Z,5.70
2019-03-10T21:04:02.266Z,6.30
2019-03-10T21:08:15.524Z,5.30
2019-03-10T21:12:26.961Z,6.90
2019-03-10T21:16:32.522Z,4.70
2019-03-10T21:20:39.259Z,5.10
2019-03-10T21:25:07.345Z,5.30
2019-03-10T21:29:15.622Z,5.40
2019-03-10T21:33:28.382Z,5.60
2019-03-10T21:41:42.956Z,5.80
2019-03-10T21:45:50.443Z,5.40
2019-03-10T21:49:56.941Z,5.60
2019-03-10T21:54:05.296Z,5.50
2019-03-10T22:02:19.960Z,5.50
2019-03-10T22:06:28.054Z,5.70
2019-03-10T22:10:36.967Z,5.60
2019-03-10T22:14:47.584Z,5.60
2019-03-10T22:18:56.332Z,5.90
2019-03-10T22:23:07.057Z,5.90
2019-03-10T22:27:15.275Z,5.90
2019-03-10T22:35:35.683Z,4.70
2019-03-10T22:39:47.502Z,5.60
2019-03-10T22:43:54.292Z,5.70
2019-03-10T22:52:14.649Z,5.70
2019-03-10T23:04:57.004Z,5.70
2019-03-10T23:09:05.544Z,5.50
2019-03-10T23:13:17.300Z,6.00
2019-03-10T23:17:23.678Z,5.60
2019-03-10T23:21:30.076Z,5.40
2019-03-10T23:30:12.555Z,5.20
2019-03-10T23:34:24.704Z,5.30
2019-03-10T23:38:31.153Z,5.20
2019-03-10T23:42:43.425Z,5.10
2019-03-10T23:46:51.670Z,5.20
2019-03-10T23:50:58.504Z,4.60
2019-03-10T23:55:07.786Z,4.30
2019-03-10T23:59:17.271Z,4.90
